createdAt,value
2023-03-23T00:01:23.202Z,86.87
2023-03-23T00:03:53.063Z,87.14
2023-03-23T00:06:22.234Z,88.66
2023-03-23T00:08:58.301Z,88.13
2023-03-23T00:11:30.423Z,88.87
2023-03-23T00:14:02.186Z,89.04
2023-03-23T00:16:38.665Z,89.40
2023-03-23T00:19:16.452Z,89.60
2023-03-23T00:21:44.562Z,88.46
2023-03-23T00:24:17.417Z,89.40
2023-03-23T00:26:50.580Z,88.19
2023-03-23T00:29:22.393Z,88.43
2023-03-23T00:31:50.726Z,87.99
2023-03-23T00:34:23.125Z,89.44
2023-03-23T00:36:58.092Z,90.05
2023-03-23T00:39:28.094Z,89.91
2023-03-23T00:42:01.771Z,88.48
2023-03-23T00:44:36.139Z,88.41
2023-03-23T00:47:04.508Z,89.46
2023-03-23T00:49:31.438Z,89.02
2023-03-23T00:51:59.806Z,88.39
2023-03-23T00:54:26.932Z,88.22
2023-03-23T00:56:55.012Z,88.43
2023-03-23T00:59:22.945Z,88.63
2023-03-23T01:01:50.680Z,88.84
2023-03-23T01:04:17.851Z,88.16
2023-03-23T01:06:46.490Z,87.38
2023-03-23T01:09:16.359Z,88.71
2023-03-23T01:11:44.829Z,89.09
2023-03-23T01:14:14.452Z,88.67
2023-03-23T01:16:41.426Z,88.60
2023-03-23T01:19:08.684Z,88.13
2023-03-23T01:21:35.717Z,87.74
2023-03-23T01:24:02.664Z,88.24
2023-03-23T01:26:31.008Z,87.58
2023-03-23T01:28:58.718Z,87.98
2023-03-23T01:31:27.436Z,87.64
2023-03-23T01:33:56.505Z,87.91
2023-03-23T01:36:29.965Z,88.34
2023-03-23T01:38:59.477Z,89.01
2023-03-23T01:41:26.481Z,88.63
2023-03-23T01:44:31.288Z,90.05
2023-03-23T01:46:58.750Z,89.31
2023-03-23T01:49:38.111Z,88.61
2023-03-23T01:52:18.412Z,88.71
2023-03-23T01:54:47.572Z,89.41
2023-03-23T01:57:18.268Z,89.38
2023-03-23T01:59:54.780Z,89.06
2023-03-23T02:02:24.536Z,88.92
2023-03-23T02:04:53.200Z,89.55
2023-03-23T02:07:21.830Z,90.13
2023-03-23T02:09:49.612Z,89.78
2023-03-23T02:12:16.879Z,90.17
2023-03-23T02:14:43.966Z,92.13
2023-03-23T02:17:32.688Z,90.88
2023-03-23T02:20:26.887Z,90.23
2023-03-23T02:23:19.957Z,89.75
2023-03-23T02:26:16.599Z,90.44
2023-03-23T02:29:23.468Z,89.32
2023-03-23T02:32:13.569Z,89.44
2023-03-23T02:34:43.317Z,90.37
2023-03-23T02:37:37.897Z,89.93
2023-03-23T02:40:24.064Z,89.84
2023-03-23T02:42:55.902Z,89.67
2023-03-23T02:45:25.703Z,89.67
2023-03-23T02:47:54.964Z,89.27
2023-03-23T02:50:28.345Z,88.44
2023-03-23T02:52:57.665Z,88.85
2023-03-23T02:55:25.939Z,89.28
2023-03-23T02:57:56.578Z,90.06
2023-03-23T03:00:24.063Z,89.89
2023-03-23T03:02:55.062Z,88.88
2023-03-23T03:06:04.366Z,89.32
2023-03-23T03:09:10.936Z,89.56
2023-03-23T03:11:43.013Z,89.45
2023-03-23T03:14:26.390Z,89.63
2023-03-23T03:17:04.753Z,88.42
2023-03-23T03:19:40.927Z,88.41
2023-03-23T03:22:09.374Z,89.18
2023-03-23T03:24:41.994Z,89.30
2023-03-23T03:27:18.569Z,89.87
2023-03-23T03:29:55.157Z,90.13
2023-03-23T03:32:32.338Z,89.70
2023-03-23T03:35:04.967Z,90.01
2023-03-23T03:37:38.555Z,89.87
2023-03-23T03:40:17.208Z,89.58
2023-03-23T03:42:46.530Z,90.06
2023-03-23T03:45:20.078Z,89.88
2023-03-23T03:47:47.471Z,89.68
2023-03-23T03:50:14.790Z,89.89
2023-03-23T03:52:41.970Z,90.53
2023-03-23T03:55:11.287Z,90.61
2023-03-23T03:57:39.650Z,89.96
2023-03-23T04:00:15.371Z,89.32
2023-03-23T04:02:52.552Z,89.06
2023-03-23T04:05:20.320Z,89.41
2023-03-23T04:07:50.524Z,89.93
2023-03-23T04:10:17.539Z,89.55
2023-03-23T04:12:59.892Z,90.37
2023-03-23T04:15:27.405Z,93.57
2023-03-23T04:17:54.296Z,92.02
2023-03-23T04:20:32.164Z,91.69
2023-03-23T04:23:01.389Z,91.13
2023-03-23T04:25:28.984Z,93.01
2023-03-23T04:27:56.365Z,92.64
2023-03-23T04:30:27.656Z,91.72
2023-03-23T04:32:56.418Z,92.92
2023-03-23T04:35:27.391Z,92.62
2023-03-23T04:37:55.121Z,93.67
2023-03-23T04:40:23.553Z,92.21
2023-03-23T04:42:53.141Z,92.91
2023-03-23T04:45:25.472Z,92.29
2023-03-23T04:47:54.361Z,92.80
2023-03-23T04:50:25.240Z,93.19
2023-03-23T04:52:52.882Z,93.21
2023-03-23T04:55:21.132Z,94.32
2023-03-23T04:57:48.979Z,95.47
2023-03-23T05:00:17.618Z,93.88
2023-03-23T05:02:47.932Z,94.22
2023-03-23T05:05:16.027Z,94.04
2023-03-23T05:07:43.472Z,95.02
2023-03-23T05:10:12.957Z,93.76
2023-03-23T05:12:51.585Z,93.39
2023-03-23T05:15:18.549Z,93.29
2023-03-23T05:17:45.868Z,92.59
2023-03-23T05:20:15.837Z,92.83
2023-03-23T05:22:45.445Z,93.46
2023-03-23T05:25:12.420Z,93.45
2023-03-23T05:27:39.912Z,93.10
2023-03-23T05:30:07.953Z,93.21
2023-03-23T05:32:34.920Z,92.75
2023-03-23T05:35:04.157Z,93.11
2023-03-23T05:37:33.426Z,92.77
2023-03-23T05:40:06.279Z,92.65
2023-03-23T05:42:37.298Z,92.00
2023-03-23T05:45:05.995Z,92.74
2023-03-23T05:47:33.460Z,92.51
2023-03-23T05:50:01.923Z,92.89
2023-03-23T05:52:28.966Z,92.98
2023-03-23T05:54:55.986Z,93.16
2023-03-23T05:57:23.070Z,92.81
2023-03-23T05:59:50.215Z,92.64
2023-03-23T06:02:17.714Z,92.21
2023-03-23T06:04:46.077Z,92.99
2023-03-23T06:07:15.062Z,92.90
2023-03-23T06:09:42.907Z,94.14
2023-03-23T06:12:10.856Z,93.28
2023-03-23T06:14:38.962Z,94.18
2023-03-23T06:17:06.021Z,95.88
2023-03-23T06:19:33.159Z,97.51
2023-03-23T06:22:00.681Z,96.67
2023-03-23T06:24:27.583Z,97.21
2023-03-23T06:26:54.532Z,95.62
2023-03-23T06:29:21.706Z,94.88
2023-03-23T06:31:54.089Z,94.71
2023-03-23T06:34:21.071Z,95.06
2023-03-23T06:36:48.153Z,94.32
2023-03-23T06:39:25.922Z,94.18
2023-03-23T06:41:52.852Z,96.75
2023-03-23T06:44:19.804Z,96.31
2023-03-23T06:46:46.788Z,95.58
2023-03-23T06:49:13.721Z,95.62
2023-03-23T06:51:40.920Z,95.18
2023-03-23T06:54:07.773Z,94.78
2023-03-23T06:56:35.497Z,94.11
2023-03-23T06:59:02.429Z,95.17
2023-03-23T07:01:29.426Z,94.11
2023-03-23T07:03:56.982Z,93.28
2023-03-23T07:06:23.871Z,93.24
2023-03-23T07:08:50.797Z,94.09
2023-03-23T07:11:17.712Z,93.59
2023-03-23T07:13:44.709Z,92.91
2023-03-23T07:16:12.175Z,92.64
2023-03-23T07:18:39.456Z,91.62
2023-03-23T07:21:07.503Z,90.77
2023-03-23T07:23:35.115Z,90.06
2023-03-23T07:26:04.500Z,90.72
2023-03-23T07:28:32.687Z,90.53
2023-03-23T07:30:59.796Z,90.01
2023-03-23T07:33:28.307Z,90.08
2023-03-23T07:35:56.248Z,89.77
2023-03-23T07:38:23.510Z,89.80
2023-03-23T07:40:54.040Z,88.51
2023-03-23T07:43:22.489Z,85.81
2023-03-23T07:45:50.138Z,84.89
2023-03-23T07:48:21.433Z,81.17
2023-03-23T07:50:49.074Z,79.15
2023-03-23T07:53:19.669Z,80.98
2023-03-23T07:55:46.798Z,81.07
2023-03-23T07:58:20.797Z,77.90
2023-03-23T08:00:50.312Z,77.25
2023-03-23T08:03:17.892Z,74.56
2023-03-23T08:05:45.754Z,72.00
2023-03-23T08:08:16.021Z,69.72
2023-03-23T08:10:45.684Z,68.40
2023-03-23T08:13:16.003Z,70.73
2023-03-23T08:15:55.260Z,69.10
2023-03-23T08:18:23.142Z,68.11
2023-03-23T08:20:51.655Z,64.38
2023-03-23T08:23:23.792Z,65.95
2023-03-23T08:25:51.691Z,64.54
2023-03-23T08:28:19.821Z,63.66
2023-03-23T08:30:50.003Z,64.89
2023-03-23T08:33:18.283Z,61.65
2023-03-23T08:35:46.148Z,60.05
2023-03-23T08:38:16.292Z,60.84
2023-03-23T08:40:45.877Z,60.73
2023-03-23T08:43:13.442Z,59.97
2023-03-23T08:45:52.640Z,60.99
2023-03-23T08:48:27.128Z,60.42
2023-03-23T08:50:57.192Z,59.07
2023-03-23T08:53:32.899Z,58.74
2023-03-23T08:56:13.994Z,56.14
2023-03-23T08:58:41.471Z,54.86
2023-03-23T09:01:09.700Z,58.14
2023-03-23T09:03:40.620Z,55.71
2023-03-23T09:06:12.565Z,55.02
2023-03-23T09:08:43.520Z,55.08
2023-03-23T09:11:11.846Z,55.25
2023-03-23T09:13:41.039Z,54.46
2023-03-23T09:16:09.485Z,53.74
2023-03-23T09:18:49.397Z,53.42
2023-03-23T09:21:21.180Z,54.38
2023-03-23T09:24:00.395Z,55.13
2023-03-23T09:35:09.850Z,51.91
2023-03-23T09:37:41.699Z,52.04
2023-03-23T09:44:05.446Z,51.67
2023-03-23T09:46:57.732Z,51.82
2023-03-23T09:49:56.710Z,51.33
2023-03-23T09:52:27.628Z,51.06
2023-03-23T09:54:56.589Z,52.97
2023-03-23T09:57:42.291Z,51.17
2023-03-23T10:00:44.828Z,51.09
2023-03-23T10:03:22.455Z,51.24
2023-03-23T10:05:53.438Z,51.60
2023-03-23T10:08:33.796Z,51.07
2023-03-23T10:11:57.172Z,50.40
2023-03-23T10:14:42.585Z,50.64
2023-03-23T10:17:24.701Z,50.46
2023-03-23T10:20:01.789Z,50.49
2023-03-23T10:22:34.760Z,51.07
2023-03-23T10:25:15.863Z,50.64
2023-03-23T10:28:16.780Z,49.35
2023-03-23T10:30:58.459Z,49.58
2023-03-23T10:33:40.239Z,49.84
2023-03-23T10:36:10.427Z,49.18
2023-03-23T10:39:06.049Z,50.53
2023-03-23T10:41:40.376Z,49.68
2023-03-23T10:44:23.349Z,50.05
2023-03-23T10:47:14.427Z,50.08
2023-03-23T10:50:09.360Z,50.80
2023-03-23T10:56:51.805Z,56.60
2023-03-23T10:59:42.118Z,56.55
2023-03-23T11:02:29.397Z,56.95
2023-03-23T11:05:09.389Z,57.29
2023-03-23T11:07:38.518Z,58.37
2023-03-23T11:11:09.615Z,58.69
2023-03-23T11:13:50.324Z,59.58
2023-03-23T11:27:24.950Z,55.37
2023-03-23T11:30:28.918Z,54.54
2023-03-23T11:33:05.316Z,53.91
2023-03-23T11:35:47.827Z,54.66
2023-03-23T11:38:20.974Z,52.36
2023-03-23T11:40:52.660Z,51.68
2023-03-23T11:43:25.948Z,51.73
2023-03-23T11:46:12.921Z,53.88
2023-03-23T11:48:53.890Z,52.65
2023-03-23T11:51:44.006Z,50.99
2023-03-23T11:54:39.320Z,51.13
2023-03-23T11:57:19.356Z,51.42
2023-03-23T11:59:47.245Z,49.67
2023-03-23T12:02:17.324Z,50.10
2023-03-23T12:05:06.317Z,49.12
2023-03-23T12:08:10.073Z,48.86
2023-03-23T12:10:59.934Z,49.73
2023-03-23T12:14:01.886Z,50.63
2023-03-23T12:16:52.596Z,49.22
2023-03-23T12:19:55.038Z,48.74
2023-03-23T12:22:35.174Z,49.01
2023-03-23T12:25:35.070Z,48.94
2023-03-23T12:28:35.145Z,48.77
2023-03-23T12:31:19.044Z,48.79
2023-03-23T12:34:09.136Z,48.44
2023-03-23T12:37:00.246Z,48.27
2023-03-23T12:39:48.273Z,49.11
2023-03-23T12:42:33.721Z,49.10
2023-03-23T12:45:03.288Z,48.08
2023-03-23T12:47:46.689Z,48.74
2023-03-23T12:50:19.336Z,48.37
2023-03-23T12:53:06.405Z,49.15
2023-03-23T12:55:48.173Z,47.97
2023-03-23T12:58:29.136Z,48.48
2023-03-23T13:01:14.698Z,48.30
2023-03-23T13:03:54.493Z,48.83
2023-03-23T13:06:34.906Z,47.59
2023-03-23T13:09:49.120Z,47.86
2023-03-23T13:12:18.136Z,48.15
2023-03-23T13:15:07.864Z,48.07
2023-03-23T13:18:12.676Z,47.84
2023-03-23T13:20:49.717Z,48.39
2023-03-23T13:23:27.232Z,50.22
2023-03-23T13:26:08.263Z,50.31
2023-03-23T13:28:56.712Z,51.23
2023-03-23T13:31:34.677Z,49.27
2023-03-23T13:34:43.015Z,50.06
2023-03-23T13:37:25.697Z,49.79
2023-03-23T13:39:59.610Z,48.90
2023-03-23T13:42:31.296Z,49.39
2023-03-23T13:45:40.830Z,49.53
2023-03-23T13:48:13.528Z,48.68
2023-03-23T13:50:57.972Z,49.01
2023-03-23T13:53:52.982Z,49.56
2023-03-23T13:56:44.101Z,49.29
2023-03-23T13:59:31.710Z,49.81
2023-03-23T14:02:48.998Z,50.28
2023-03-23T14:05:20.437Z,50.59
2023-03-23T14:08:11.430Z,50.24
2023-03-23T14:11:07.059Z,50.57
2023-03-23T14:14:06.888Z,50.04
2023-03-23T14:16:33.861Z,49.83
2023-03-23T14:19:06.387Z,50.74
2023-03-23T14:21:41.157Z,51.48
2023-03-23T14:24:20.647Z,51.84
2023-03-23T14:26:48.016Z,50.68
2023-03-23T14:29:15.112Z,50.42
2023-03-23T14:31:42.565Z,49.69
2023-03-23T14:34:17.381Z,49.64
2023-03-23T14:36:44.838Z,49.63
2023-03-23T14:39:35.035Z,50.21
2023-03-23T14:42:11.278Z,49.80
2023-03-23T14:44:45.527Z,50.62
2023-03-23T14:47:20.794Z,50.02
2023-03-23T14:49:47.734Z,49.84
2023-03-23T14:52:19.224Z,49.84
2023-03-23T14:54:47.042Z,49.70
2023-03-23T14:57:18.281Z,49.64
2023-03-23T14:59:48.381Z,50.55
2023-03-23T15:02:37.339Z,49.58
2023-03-23T15:05:13.340Z,49.49
2023-03-23T15:07:44.990Z,51.30
2023-03-23T15:10:18.527Z,49.43
2023-03-23T15:12:48.850Z,49.85
2023-03-23T15:15:33.469Z,50.24
2023-03-23T15:18:02.574Z,49.12
2023-03-23T15:20:49.540Z,49.76
2023-03-23T15:23:28.663Z,49.88
2023-03-23T15:25:58.988Z,50.61
2023-03-23T15:28:34.059Z,49.95
2023-03-23T15:31:05.259Z,50.47
2023-03-23T15:33:40.750Z,50.02
2023-03-23T15:36:17.665Z,50.75
2023-03-23T15:38:47.642Z,50.47
2023-03-23T15:41:28.056Z,50.79
2023-03-23T15:44:03.054Z,51.24
2023-03-23T15:46:30.267Z,51.74
2023-03-23T15:48:59.919Z,51.93
2023-03-23T15:51:32.336Z,52.37
2023-03-23T15:54:02.836Z,52.82
2023-03-23T15:56:32.558Z,52.77
2023-03-23T15:59:01.412Z,52.78
2023-03-23T16:01:31.268Z,53.88
2023-03-23T16:04:15.506Z,53.17
2023-03-23T16:06:43.544Z,53.69
2023-03-23T16:09:17.009Z,53.89
2023-03-23T16:11:44.150Z,53.87
2023-03-23T16:14:11.905Z,53.38
2023-03-23T16:16:50.843Z,54.24
2023-03-23T16:19:20.700Z,53.82
2023-03-23T16:21:47.768Z,53.99
2023-03-23T16:24:14.621Z,54.05
2023-03-23T16:26:41.716Z,53.60
2023-03-23T16:29:28.449Z,54.48
2023-03-23T16:32:01.508Z,54.59
2023-03-23T16:34:30.318Z,54.46
2023-03-23T16:36:57.206Z,54.17
2023-03-23T16:39:24.112Z,54.61
2023-03-23T16:41:51.054Z,54.65
2023-03-23T16:44:18.048Z,54.31
2023-03-23T16:46:45.034Z,54.40
2023-03-23T16:49:11.996Z,54.77
2023-03-23T16:51:39.569Z,54.31
2023-03-23T16:54:08.094Z,55.19
2023-03-23T16:56:35.038Z,54.33
2023-03-23T16:59:02.045Z,54.53
2023-03-23T17:01:28.968Z,54.57
2023-03-23T17:03:56.105Z,54.46
2023-03-23T17:06:23.127Z,54.07
2023-03-23T17:08:52.452Z,54.88
2023-03-23T17:11:19.350Z,54.50
2023-03-23T17:13:46.183Z,54.82
2023-03-23T17:16:13.144Z,55.00
2023-03-23T17:18:40.064Z,54.66
2023-03-23T17:21:07.712Z,54.88
2023-03-23T17:23:34.796Z,55.16
2023-03-23T17:26:01.831Z,54.71
2023-03-23T17:28:29.054Z,54.77
2023-03-23T17:30:55.993Z,54.67
2023-03-23T17:33:23.037Z,54.94
2023-03-23T17:35:52.179Z,55.60
2023-03-23T17:38:19.648Z,55.36
2023-03-23T17:40:46.611Z,55.88
2023-03-23T17:43:13.506Z,55.88
2023-03-23T17:45:43.042Z,56.08
2023-03-23T17:48:11.439Z,56.39
2023-03-23T17:50:38.783Z,55.88
2023-03-23T17:53:06.020Z,57.05
2023-03-23T17:55:33.254Z,56.86
2023-03-23T17:58:00.190Z,56.58
2023-03-23T18:00:27.185Z,57.42
2023-03-23T18:02:54.492Z,58.16
2023-03-23T18:05:21.525Z,57.45
2023-03-23T18:07:48.428Z,57.36
2023-03-23T18:10:15.584Z,57.67
2023-03-23T18:12:43.137Z,57.60
2023-03-23T18:15:11.772Z,58.57
2023-03-23T18:17:38.797Z,59.15
2023-03-23T18:20:07.831Z,58.96
2023-03-23T18:22:35.024Z,58.95
2023-03-23T18:25:03.002Z,59.25
2023-03-23T18:27:30.030Z,59.75
2023-03-23T18:29:57.112Z,60.84
2023-03-23T18:32:30.578Z,59.71
2023-03-23T18:34:57.704Z,60.00
2023-03-23T18:37:24.778Z,60.22
2023-03-23T18:39:53.905Z,60.03
2023-03-23T18:42:21.584Z,60.15
2023-03-23T18:44:49.980Z,60.20
2023-03-23T18:47:17.060Z,60.49
2023-03-23T18:49:46.632Z,60.65
2023-03-23T18:52:13.679Z,60.40
2023-03-23T18:54:42.087Z,61.57
2023-03-23T18:57:09.033Z,62.59
2023-03-23T18:59:36.195Z,61.48
2023-03-23T19:02:03.885Z,62.10
2023-03-23T19:04:34.642Z,61.94
2023-03-23T19:07:02.212Z,61.81
2023-03-23T19:09:30.213Z,61.71
2023-03-23T19:11:57.305Z,61.44
2023-03-23T19:14:24.306Z,62.13
2023-03-23T19:16:52.508Z,61.66
2023-03-23T19:19:20.021Z,62.37
2023-03-23T19:21:47.342Z,62.03
2023-03-23T19:24:14.634Z,62.22
2023-03-23T19:26:44.784Z,62.69
2023-03-23T19:31:46.904Z,63.57
2023-03-23T19:34:15.521Z,63.67
2023-03-23T19:36:50.269Z,63.84
2023-03-23T19:39:22.182Z,64.99
2023-03-23T19:41:50.134Z,64.87
2023-03-23T19:44:17.999Z,65.00
2023-03-23T19:46:45.820Z,65.14
2023-03-23T19:49:13.076Z,65.13
2023-03-23T19:51:40.018Z,65.04
2023-03-23T19:54:09.797Z,65.19
2023-03-23T19:56:37.362Z,64.98
2023-03-23T19:59:05.073Z,65.36
2023-03-23T20:01:32.128Z,65.32
2023-03-23T20:04:06.971Z,65.48
2023-03-23T20:06:35.595Z,65.54
2023-03-23T20:09:22.656Z,65.53
2023-03-23T20:11:50.325Z,66.36
2023-03-23T20:14:17.803Z,66.73
2023-03-23T20:16:44.702Z,66.86
2023-03-23T20:19:11.857Z,66.37
2023-03-23T20:21:39.714Z,67.16
2023-03-23T20:24:08.095Z,67.18
2023-03-23T20:26:43.856Z,68.57
2023-03-23T20:29:11.711Z,68.38
2023-03-23T20:31:41.521Z,68.84
2023-03-23T20:34:13.165Z,68.00
2023-03-23T20:36:45.479Z,68.44
2023-03-23T20:39:23.582Z,68.36
2023-03-23T20:41:53.185Z,68.03
2023-03-23T20:44:23.445Z,67.92
2023-03-23T20:46:52.560Z,67.77
2023-03-23T20:49:21.076Z,68.25
2023-03-23T20:51:48.936Z,69.04
2023-03-23T20:54:18.840Z,68.84
2023-03-23T20:56:47.135Z,69.64
2023-03-23T20:59:15.820Z,70.21
2023-03-23T21:01:43.962Z,70.71
2023-03-23T21:04:15.808Z,70.69
2023-03-23T21:06:45.389Z,71.15
2023-03-23T21:09:14.026Z,71.14
2023-03-23T21:11:42.524Z,71.36
2023-03-23T21:14:10.541Z,71.59
2023-03-23T21:16:38.426Z,72.83
2023-03-23T21:19:06.201Z,73.17
2023-03-23T21:21:34.408Z,72.83
2023-03-23T21:24:01.364Z,73.76
2023-03-23T21:26:30.171Z,75.15
2023-03-23T21:29:00.789Z,76.27
2023-03-23T21:31:30.980Z,76.05
2023-03-23T21:33:59.510Z,76.10
2023-03-23T21:36:27.611Z,76.41
2023-03-23T21:38:55.623Z,77.69
2023-03-23T21:41:23.033Z,76.96
2023-03-23T21:43:50.812Z,77.74
2023-03-23T21:46:18.601Z,78.04
2023-03-23T21:48:51.620Z,77.27
2023-03-23T21:51:26.354Z,77.38
2023-03-23T21:53:55.180Z,77.12
2023-03-23T21:56:26.345Z,76.68
2023-03-23T21:58:53.236Z,76.60
2023-03-23T22:01:20.887Z,77.06
2023-03-23T22:03:48.131Z,77.96
2023-03-23T22:06:23.558Z,77.62
2023-03-23T22:08:50.804Z,78.43
2023-03-23T22:11:25.781Z,78.52
2023-03-23T22:13:55.226Z,78.03
2023-03-23T22:16:22.997Z,78.98
2023-03-23T22:18:52.540Z,79.05
2023-03-23T22:21:22.315Z,79.08
2023-03-23T22:23:49.907Z,79.37
2023-03-23T22:26:17.455Z,81.29
2023-03-23T22:28:46.625Z,82.48
2023-03-23T22:31:26.843Z,81.97
2023-03-23T22:33:55.811Z,82.70
2023-03-23T22:36:26.222Z,82.45
2023-03-23T22:38:53.491Z,81.97
2023-03-23T22:41:28.119Z,82.33
2023-03-23T22:43:55.445Z,83.63
2023-03-23T22:46:22.958Z,83.29
2023-03-23T22:48:49.949Z,83.08
2023-03-23T22:51:19.078Z,82.84
2023-03-23T22:53:46.328Z,82.42
2023-03-23T22:56:17.045Z,82.74
2023-03-23T22:58:44.418Z,83.91
2023-03-23T23:01:20.789Z,82.66
2023-03-23T23:03:48.772Z,82.93
2023-03-23T23:06:17.547Z,84.20
2023-03-23T23:08:45.961Z,84.85
2023-03-23T23:11:16.450Z,85.53
2023-03-23T23:13:43.684Z,84.09
2023-03-23T23:16:12.196Z,85.10
2023-03-23T23:18:40.882Z,85.29
2023-03-23T23:21:15.880Z,84.68
2023-03-23T23:23:45.036Z,85.24
2023-03-23T23:26:12.694Z,86.22
2023-03-23T23:28:39.691Z,85.24
2023-03-23T23:31:26.646Z,85.36
2023-03-23T23:33:57.011Z,84.87
2023-03-23T23:36:30.437Z,85.80
2023-03-23T23:39:01.638Z,86.66
2023-03-23T23:41:30.166Z,87.08
2023-03-23T23:43:57.178Z,85.90
2023-03-23T23:46:24.177Z,86.57
2023-03-23T23:48:51.475Z,86.57
2023-03-23T23:51:18.969Z,85.89
2023-03-23T23:53:53.625Z,87.20
2023-03-23T23:56:21.753Z,87.66
2023-03-23T23:58:49.234Z,88.30
